Terminal Aerodrome Forecast
Issued by NWS Caribou, ME

Home | Current Version | Previous Version | Text Only | Print | Product List | Glossary On
Versions: 1 2 3 4 5 6 7 8 9 10 11 12 13 14 15 16 17 18 19 20
000
FTUS41 KCAR 301120
TAFCAR
TAF
KCAR 301120Z 3012/0112 26006KT P6SM BKN023
     FM301600 26006KT P6SM BKN035
     FM301800 26006KT P6SM SCT045
     FM302200 22005KT P6SM SCT250
     FM011000 16006KT P6SM BKN050=

USA.gov is the U.S. government's official web portal to all federal, state and local government web resources and services.